createdAt,value
2023-08-28T00:01:01.955Z,69.00
2023-08-28T00:02:04.743Z,68.67
2023-08-28T00:03:07.375Z,69.00
2023-08-28T00:04:10.111Z,69.00
2023-08-28T00:05:12.766Z,70.00
2023-08-28T00:06:16.335Z,69.83
2023-08-28T00:07:19.099Z,69.17
2023-08-28T00:08:21.728Z,67.83
2023-08-28T00:09:24.337Z,68.00
2023-08-28T00:10:26.959Z,68.50
2023-08-28T00:11:29.579Z,71.33
2023-08-28T00:12:34.874Z,75.50
2023-08-28T00:13:37.501Z,84.00
2023-08-28T00:14:40.202Z,86.67
2023-08-28T00:15:42.811Z,85.33
2023-08-28T00:16:45.416Z,85.00
2023-08-28T00:17:48.084Z,84.50
2023-08-28T00:18:50.713Z,86.33
2023-08-28T00:19:53.364Z,89.83
2023-08-28T00:20:56.396Z,92.33
2023-08-28T00:21:58.990Z,95.33
2023-08-28T00:23:01.853Z,95.67
2023-08-28T00:24:06.282Z,96.50
2023-08-28T00:25:09.500Z,95.50
2023-08-28T00:26:12.132Z,96.33
2023-08-28T00:27:15.457Z,95.33
2023-08-28T00:28:18.033Z,94.00
2023-08-28T00:29:20.651Z,89.33
2023-08-28T00:30:23.551Z,77.17
2023-08-28T00:31:26.216Z,74.33
2023-08-28T00:32:28.918Z,75.33
2023-08-28T00:33:31.573Z,74.00
2023-08-28T00:34:34.154Z,67.33
2023-08-28T00:35:36.957Z,65.83
2023-08-28T00:36:39.578Z,62.00
2023-08-28T00:37:42.146Z,58.17
2023-08-28T00:38:45.136Z,56.00
2023-08-28T00:39:47.772Z,57.67
2023-08-28T00:40:50.390Z,60.00
2023-08-28T00:41:53.005Z,61.00
2023-08-28T00:42:55.626Z,61.17
2023-08-28T00:43:58.249Z,62.00
2023-08-28T00:45:00.840Z,62.83
2023-08-28T00:46:04.391Z,63.67
2023-08-28T00:47:09.442Z,64.50
2023-08-28T00:48:15.915Z,65.17
2023-08-28T00:49:18.703Z,66.00
2023-08-28T00:50:21.354Z,66.00
2023-08-28T00:51:23.937Z,66.67
2023-08-28T00:52:26.593Z,68.67
2023-08-28T00:53:29.236Z,69.00
2023-08-28T00:54:31.881Z,69.00
2023-08-28T00:55:36.262Z,69.00
2023-08-28T00:56:40.596Z,68.33
2023-08-28T00:57:43.317Z,68.00
2023-08-28T00:58:46.206Z,68.00
2023-08-28T00:59:48.831Z,67.00
2023-08-28T01:00:51.413Z,67.00
2023-08-28T01:01:54.177Z,67.00
2023-08-28T01:02:57.318Z,67.17
2023-08-28T01:04:02.944Z,67.67
2023-08-28T01:05:06.791Z,66.67
2023-08-28T01:06:38.844Z,65.33
2023-08-28T01:08:02.414Z,64.00
2023-08-28T01:09:26.949Z,64.00
2023-08-28T01:10:35.692Z,64.00
2023-08-28T01:12:15.154Z,63.50
2023-08-28T01:13:37.581Z,64.00
2023-08-28T01:15:10.949Z,63.50
2023-08-28T01:16:15.277Z,61.83
2023-08-28T01:17:19.402Z,61.00
2023-08-28T01:18:22.521Z,61.00
2023-08-28T01:19:34.199Z,59.33
2023-08-28T01:20:37.136Z,58.00
2023-08-28T01:21:43.169Z,58.17
2023-08-28T01:23:06.122Z,58.83
2023-08-28T01:24:11.466Z,59.33
2023-08-28T01:25:16.140Z,60.17
2023-08-28T01:26:18.994Z,61.00
2023-08-28T01:27:22.401Z,62.17
2023-08-28T01:28:28.909Z,64.67
2023-08-28T01:29:31.496Z,65.17
2023-08-28T01:30:34.149Z,66.00
2023-08-28T01:31:36.758Z,66.00
2023-08-28T01:32:40.705Z,65.67
2023-08-28T01:33:43.435Z,65.00
2023-08-28T01:34:46.085Z,64.33
2023-08-28T01:36:01.870Z,59.67
2023-08-28T01:37:13.061Z,53.50
2023-08-28T01:38:20.575Z,51.00
2023-08-28T01:39:30.929Z,50.50
2023-08-28T01:40:46.485Z,50.00
2023-08-28T01:41:49.981Z,49.17
2023-08-28T01:42:54.031Z,49.67
2023-08-28T01:44:02.151Z,49.83
2023-08-28T01:45:06.063Z,49.50
2023-08-28T01:46:08.987Z,50.00
2023-08-28T01:47:13.270Z,50.00
2023-08-28T01:48:16.394Z,50.00
2023-08-28T01:49:19.002Z,50.67
2023-08-28T01:50:21.636Z,51.00
2023-08-28T01:51:25.019Z,51.00
2023-08-28T01:52:27.645Z,51.83
2023-08-28T01:53:31.040Z,52.00
2023-08-28T01:54:33.729Z,52.00
2023-08-28T01:56:03.776Z,52.00
2023-08-28T01:57:06.518Z,51.00
2023-08-28T01:58:09.190Z,50.17
2023-08-28T01:59:11.768Z,50.00
2023-08-28T02:00:14.586Z,50.00
2023-08-28T02:01:17.339Z,50.83
2023-08-28T02:02:19.988Z,52.00
2023-08-28T02:03:22.675Z,53.17
2023-08-28T02:04:25.809Z,54.50
2023-08-28T02:05:28.426Z,55.00
2023-08-28T02:06:31.018Z,55.67
2023-08-28T02:07:33.626Z,56.83
2023-08-28T02:08:36.318Z,58.00
2023-08-28T02:09:38.902Z,58.17
2023-08-28T02:10:41.464Z,58.67
2023-08-28T02:11:44.535Z,58.17
2023-08-28T02:12:47.101Z,58.00
2023-08-28T02:13:49.767Z,58.00
2023-08-28T02:14:52.343Z,58.00
2023-08-28T02:15:54.917Z,58.00
2023-08-28T02:16:57.627Z,58.00
2023-08-28T02:18:00.287Z,58.00
2023-08-28T02:19:03.170Z,57.83
2023-08-28T02:20:06.400Z,57.83
2023-08-28T02:21:09.181Z,58.50
2023-08-28T02:22:11.793Z,59.17
2023-08-28T02:23:14.376Z,60.00
2023-08-28T02:24:16.991Z,60.50
2023-08-28T02:25:22.147Z,62.50
2023-08-28T02:26:25.696Z,65.17
2023-08-28T02:27:28.391Z,68.50
2023-08-28T02:28:31.003Z,72.50
2023-08-28T02:29:33.603Z,76.00
2023-08-28T02:30:36.240Z,76.50
2023-08-28T02:31:38.901Z,76.17
2023-08-28T02:32:41.548Z,76.00
2023-08-28T02:33:45.638Z,75.83
2023-08-28T02:34:48.286Z,75.83
2023-08-28T02:35:50.909Z,75.33
2023-08-28T02:36:53.485Z,75.00
2023-08-28T02:37:56.069Z,75.00
2023-08-28T02:38:58.683Z,75.83
2023-08-28T02:40:01.361Z,75.83
2023-08-28T02:41:05.861Z,76.50
2023-08-28T02:42:08.489Z,77.17
2023-08-28T02:43:11.088Z,78.83
2023-08-28T02:44:13.683Z,79.83
2023-08-28T02:45:16.332Z,80.67
2023-08-28T02:46:19.008Z,81.00
2023-08-28T02:47:21.783Z,81.83
2023-08-28T02:48:24.351Z,81.50
2023-08-28T02:49:26.950Z,80.00
2023-08-28T02:50:29.584Z,78.67
2023-08-28T02:51:32.171Z,76.17
2023-08-28T02:52:34.950Z,74.00
2023-08-28T02:53:37.574Z,73.00
2023-08-28T02:54:40.251Z,72.67
2023-08-28T02:55:43.113Z,72.00
2023-08-28T02:56:45.745Z,71.17
2023-08-28T02:57:48.325Z,70.83
2023-08-28T02:58:52.138Z,70.17
2023-08-28T02:59:54.732Z,70.00
2023-08-28T03:00:57.357Z,70.00
2023-08-28T03:02:00.083Z,70.00
2023-08-28T03:03:03.065Z,70.00
2023-08-28T03:04:06.466Z,70.67
2023-08-28T03:05:10.287Z,72.50
2023-08-28T03:06:13.157Z,74.17
2023-08-28T03:07:15.770Z,75.50
2023-08-28T03:08:18.364Z,77.00
2023-08-28T03:09:20.950Z,77.00
2023-08-28T03:10:23.997Z,75.67
2023-08-28T03:11:26.631Z,74.00
2023-08-28T03:12:29.376Z,72.67
2023-08-28T03:13:32.028Z,72.00
2023-08-28T03:14:34.619Z,72.00
2023-08-28T03:15:37.216Z,72.00
2023-08-28T03:16:39.905Z,72.00
2023-08-28T03:17:42.591Z,73.00
2023-08-28T03:18:45.241Z,76.33
2023-08-28T03:19:47.835Z,77.83
2023-08-28T03:20:50.534Z,78.67
2023-08-28T03:21:53.141Z,79.50
2023-08-28T03:22:56.618Z,80.00
2023-08-28T03:23:59.201Z,80.00
2023-08-28T03:25:01.821Z,80.33
2023-08-28T03:26:04.502Z,80.50
2023-08-28T03:27:07.123Z,80.67
2023-08-28T03:28:10.760Z,81.83
2023-08-28T03:29:13.397Z,84.00
2023-08-28T03:30:16.017Z,85.50
2023-08-28T03:31:18.635Z,87.50
2023-08-28T03:32:21.261Z,88.00
2023-08-28T03:33:24.070Z,87.50
2023-08-28T03:34:26.640Z,87.17
2023-08-28T03:35:29.215Z,87.00
2023-08-28T03:36:32.703Z,87.67
2023-08-28T03:37:35.304Z,88.00
2023-08-28T03:38:40.381Z,88.83
2023-08-28T03:39:43.373Z,88.33
2023-08-28T03:40:46.743Z,89.17
2023-08-28T03:41:49.357Z,91.83
2023-08-28T03:42:52.006Z,93.50
2023-08-28T03:43:54.597Z,95.50
2023-08-28T03:44:57.218Z,100.17
2023-08-28T03:45:59.889Z,106.33
2023-08-28T03:47:02.529Z,111.50
2023-08-28T03:48:05.825Z,110.17
2023-08-28T03:49:08.571Z,109.50
2023-08-28T03:50:11.153Z,108.17
2023-08-28T03:51:13.802Z,108.17
2023-08-28T03:52:19.168Z,107.17
2023-08-28T03:53:22.041Z,106.33
2023-08-28T03:54:24.626Z,106.00
2023-08-28T03:55:31.161Z,105.67
2023-08-28T03:56:33.897Z,105.00
2023-08-28T03:57:36.561Z,104.33
2023-08-28T03:58:39.202Z,104.00
2023-08-28T03:59:41.785Z,104.00
2023-08-28T04:00:44.386Z,103.00
2023-08-28T04:01:47.028Z,97.67
2023-08-28T04:02:49.904Z,88.67
2023-08-28T04:03:52.675Z,158.67
2023-08-28T04:05:06.570Z,434.33
2023-08-28T04:06:10.085Z,409.33
2023-08-28T04:07:26.640Z,232.17
2023-08-28T04:08:29.558Z,124.50
2023-08-28T04:09:32.231Z,95.50
2023-08-28T04:10:34.828Z,83.17
2023-08-28T04:11:37.450Z,85.50
2023-08-28T04:12:40.455Z,82.83
2023-08-28T04:13:43.284Z,77.67
2023-08-28T04:14:45.961Z,83.83
2023-08-28T04:15:50.849Z,74.83
2023-08-28T04:16:54.887Z,67.33
2023-08-28T04:18:00.699Z,67.67
2023-08-28T04:19:03.349Z,68.83
2023-08-28T04:20:14.230Z,78.67
2023-08-28T04:21:16.862Z,147.00
2023-08-28T04:22:20.559Z,133.50
2023-08-28T04:23:23.315Z,116.33
2023-08-28T04:24:25.914Z,92.33
2023-08-28T04:25:30.721Z,82.33
2023-08-28T04:26:33.302Z,81.67
2023-08-28T04:27:35.981Z,86.67
2023-08-28T04:28:38.595Z,72.00
2023-08-28T04:29:41.423Z,65.67
2023-08-28T04:30:44.093Z,69.33
2023-08-28T04:31:46.699Z,78.33
2023-08-28T04:32:49.496Z,89.17
2023-08-28T04:33:52.127Z,112.67
2023-08-28T04:34:54.818Z,127.67
2023-08-28T04:35:57.448Z,130.50
2023-08-28T04:37:00.145Z,121.00
2023-08-28T04:38:02.846Z,140.17
2023-08-28T04:39:05.510Z,127.33
2023-08-28T04:40:08.791Z,122.00
2023-08-28T04:41:11.470Z,117.50
2023-08-28T04:42:16.066Z,135.00
2023-08-28T04:43:18.656Z,172.50
2023-08-28T04:44:21.817Z,187.67
2023-08-28T04:45:24.480Z,207.50
2023-08-28T04:46:27.296Z,201.50
2023-08-28T04:47:30.810Z,198.17
2023-08-28T04:48:33.436Z,198.83
2023-08-28T04:49:36.004Z,149.50
2023-08-28T04:50:38.661Z,109.83
2023-08-28T04:51:41.296Z,106.50
2023-08-28T04:52:43.939Z,110.00
2023-08-28T04:53:46.575Z,114.67
2023-08-28T04:54:49.383Z,112.83
2023-08-28T04:55:52.030Z,104.50
2023-08-28T04:56:54.662Z,99.67
2023-08-28T04:57:57.301Z,95.50
2023-08-28T04:58:59.921Z,97.50
2023-08-28T05:00:02.939Z,94.33
2023-08-28T05:01:05.666Z,95.50
2023-08-28T05:02:08.262Z,98.00
2023-08-28T05:03:10.963Z,97.83
2023-08-28T05:04:13.804Z,126.67
2023-08-28T05:05:16.408Z,151.33
2023-08-28T05:06:19.077Z,189.50
2023-08-28T05:07:23.377Z,196.83
2023-08-28T05:08:26.364Z,152.50
2023-08-28T05:09:29.008Z,139.50
2023-08-28T05:10:31.647Z,125.17
2023-08-28T05:11:34.219Z,113.17
2023-08-28T05:12:36.868Z,113.33
2023-08-28T05:13:39.487Z,113.67
2023-08-28T05:14:42.097Z,114.00
2023-08-28T05:15:44.786Z,115.00
2023-08-28T05:16:47.370Z,113.33
2023-08-28T05:17:50.064Z,106.17
2023-08-28T05:18:52.699Z,106.00
2023-08-28T05:19:55.323Z,103.83
2023-08-28T05:20:57.919Z,103.00
2023-08-28T05:22:00.485Z,102.67
2023-08-28T05:23:04.649Z,101.83
2023-08-28T05:24:07.768Z,98.83
2023-08-28T05:25:10.421Z,99.00
2023-08-28T05:26:13.026Z,99.00
2023-08-28T05:27:15.601Z,99.00
2023-08-28T05:28:18.362Z,98.17
2023-08-28T05:29:20.976Z,98.83
2023-08-28T05:30:24.372Z,99.00
2023-08-28T05:31:27.004Z,98.67
2023-08-28T05:32:29.622Z,98.67
2023-08-28T05:33:32.939Z,104.00
2023-08-28T05:34:35.537Z,108.00
2023-08-28T05:35:38.218Z,135.33
2023-08-28T05:36:40.798Z,138.17
2023-08-28T05:37:43.429Z,144.83
2023-08-28T05:38:46.078Z,132.83
2023-08-28T05:39:49.153Z,129.33
2023-08-28T05:40:51.740Z,123.83
2023-08-28T05:41:54.383Z,126.33
2023-08-28T05:42:57.545Z,136.50
2023-08-28T05:44:00.156Z,135.33
2023-08-28T05:45:02.781Z,132.83
2023-08-28T05:46:05.424Z,132.33
2023-08-28T05:47:08.008Z,133.00
2023-08-28T05:48:10.620Z,136.17
2023-08-28T05:49:13.273Z,149.67
2023-08-28T05:50:18.277Z,164.17
2023-08-28T05:51:20.903Z,195.83
2023-08-28T05:52:23.570Z,249.17
2023-08-28T05:53:26.198Z,267.00
2023-08-28T05:54:28.808Z,264.33
2023-08-28T05:55:31.421Z,193.17
2023-08-28T05:56:34.057Z,158.00
2023-08-28T05:57:36.708Z,161.50
2023-08-28T05:58:39.371Z,144.00
2023-08-28T05:59:42.958Z,138.17
2023-08-28T06:00:48.057Z,145.33
2023-08-28T06:01:50.708Z,144.17
2023-08-28T06:02:53.485Z,133.83
2023-08-28T06:03:57.649Z,130.33
2023-08-28T06:05:00.475Z,130.50
2023-08-28T06:06:03.065Z,136.00
2023-08-28T06:07:05.883Z,115.50
2023-08-28T06:08:08.466Z,119.00
2023-08-28T06:09:11.219Z,114.33
2023-08-28T06:10:18.890Z,105.83
2023-08-28T06:11:21.763Z,112.17
2023-08-28T06:12:26.077Z,111.00
2023-08-28T06:13:28.874Z,125.67
2023-08-28T06:14:31.534Z,163.33
2023-08-28T06:15:34.387Z,182.67
2023-08-28T06:16:37.660Z,240.83
2023-08-28T06:17:40.567Z,216.50
2023-08-28T06:18:43.227Z,182.17
2023-08-28T06:19:45.799Z,217.00
2023-08-28T06:20:48.490Z,238.83
2023-08-28T06:21:51.135Z,205.33
2023-08-28T06:22:53.727Z,231.50
2023-08-28T06:23:58.925Z,253.67
2023-08-28T06:25:02.263Z,208.33
2023-08-28T06:26:04.869Z,147.00
2023-08-28T06:27:07.488Z,126.33
2023-08-28T06:28:10.401Z,124.00
2023-08-28T06:29:14.794Z,133.50
2023-08-28T06:30:18.641Z,141.67
2023-08-28T06:31:21.396Z,137.83
2023-08-28T06:32:24.094Z,122.83
2023-08-28T06:33:26.722Z,140.67
2023-08-28T06:34:29.319Z,144.83
2023-08-28T06:35:33.548Z,149.50
2023-08-28T06:36:36.249Z,152.17
2023-08-28T06:37:38.918Z,158.50
2023-08-28T06:38:41.634Z,164.33
2023-08-28T06:39:44.229Z,151.17
2023-08-28T06:40:52.161Z,127.67
2023-08-28T06:41:54.818Z,114.00
2023-08-28T06:42:57.489Z,108.67
2023-08-28T06:44:01.435Z,105.17
2023-08-28T06:45:05.180Z,98.00
2023-08-28T06:46:07.806Z,92.83
2023-08-28T06:47:10.500Z,105.00
2023-08-28T06:48:13.421Z,94.17
2023-08-28T06:49:16.001Z,90.67
2023-08-28T06:50:18.683Z,98.33
2023-08-28T06:51:21.464Z,99.50
2023-08-28T06:52:24.085Z,99.50
2023-08-28T06:53:26.946Z,96.67
2023-08-28T06:54:38.804Z,95.17
2023-08-28T06:55:52.200Z,94.17
2023-08-28T06:56:54.770Z,96.50
2023-08-28T06:57:57.352Z,100.83
2023-08-28T06:58:59.982Z,128.33
2023-08-28T07:00:03.472Z,123.17
2023-08-28T07:01:06.168Z,118.67
2023-08-28T07:02:08.815Z,141.00
2023-08-28T07:03:11.500Z,174.83
2023-08-28T07:04:14.124Z,145.17
2023-08-28T07:05:16.994Z,117.33
2023-08-28T07:06:19.639Z,111.33
2023-08-28T07:07:22.219Z,97.50
2023-08-28T07:08:24.839Z,78.50
2023-08-28T07:09:28.441Z,77.50
2023-08-28T07:10:31.012Z,91.00
2023-08-28T07:11:33.639Z,76.17
2023-08-28T07:12:36.207Z,64.83
2023-08-28T07:13:38.961Z,67.50
2023-08-28T07:14:41.629Z,67.00
2023-08-28T07:15:44.244Z,70.17
2023-08-28T07:16:46.903Z,61.50
2023-08-28T07:17:49.530Z,58.50
2023-08-28T07:18:52.246Z,63.67
2023-08-28T07:19:57.761Z,64.67
2023-08-28T07:21:00.785Z,58.67
2023-08-28T07:22:03.893Z,62.67
2023-08-28T07:23:06.494Z,63.33
2023-08-28T07:24:09.669Z,62.50
2023-08-28T07:25:12.291Z,59.50
2023-08-28T07:26:14.888Z,62.83
2023-08-28T07:27:18.008Z,65.00
2023-08-28T07:28:21.599Z,68.33
2023-08-28T07:29:24.220Z,67.17
2023-08-28T07:30:26.786Z,62.83
2023-08-28T07:31:29.374Z,60.83
2023-08-28T07:32:33.747Z,61.83
2023-08-28T07:33:36.400Z,62.67
2023-08-28T07:34:38.995Z,65.00
2023-08-28T07:35:45.875Z,65.17
2023-08-28T07:36:48.484Z,63.50
2023-08-28T07:37:51.111Z,62.50
2023-08-28T07:38:53.695Z,61.17
2023-08-28T07:39:56.420Z,61.00
2023-08-28T07:40:59.301Z,61.50
2023-08-28T07:42:02.041Z,61.83
2023-08-28T07:43:05.198Z,54.67
2023-08-28T07:44:08.071Z,50.33
2023-08-28T07:45:10.790Z,52.50
2023-08-28T07:46:13.379Z,53.67
2023-08-28T07:47:16.031Z,54.33
2023-08-28T07:48:18.616Z,55.00
2023-08-28T07:49:21.278Z,52.50
2023-08-28T07:50:24.528Z,51.67
2023-08-28T07:51:27.289Z,61.17
2023-08-28T07:52:29.889Z,57.83
2023-08-28T07:53:32.463Z,43.17
2023-08-28T07:54:35.103Z,38.33
2023-08-28T07:55:38.518Z,39.50
2023-08-28T07:56:41.103Z,40.00
2023-08-28T07:57:43.715Z,40.00
2023-08-28T07:58:46.768Z,39.67
2023-08-28T07:59:49.482Z,37.50
2023-08-28T08:00:53.134Z,37.50
2023-08-28T08:01:55.957Z,38.83
2023-08-28T08:02:58.637Z,39.83
2023-08-28T08:04:01.334Z,40.17
2023-08-28T08:05:05.318Z,40.33
2023-08-28T08:06:08.960Z,41.67
2023-08-28T08:07:11.547Z,45.00
2023-08-28T08:08:14.254Z,52.17
2023-08-28T08:09:16.823Z,55.67
2023-08-28T08:10:19.400Z,55.00
2023-08-28T08:11:22.061Z,63.33
2023-08-28T08:12:24.693Z,88.83
2023-08-28T08:13:27.299Z,98.33
2023-08-28T08:14:29.925Z,136.67
2023-08-28T08:15:33.225Z,101.83
2023-08-28T08:16:35.947Z,115.83
2023-08-28T08:17:38.801Z,100.00
2023-08-28T08:18:41.445Z,65.33
2023-08-28T08:19:44.045Z,49.67
2023-08-28T08:20:46.718Z,57.00
2023-08-28T08:21:49.377Z,54.50
2023-08-28T08:22:54.703Z,53.67
2023-08-28T08:23:57.931Z,57.83
2023-08-28T08:25:00.554Z,64.33
2023-08-28T08:26:05.330Z,70.67
2023-08-28T08:27:10.095Z,65.83
2023-08-28T08:28:13.816Z,70.83
2023-08-28T08:29:16.516Z,76.83
2023-08-28T08:30:19.366Z,96.50
2023-08-28T08:31:22.052Z,100.67
2023-08-28T08:32:24.701Z,115.33
2023-08-28T08:33:27.366Z,218.67
2023-08-28T08:34:30.033Z,160.67
2023-08-28T08:35:32.721Z,108.17
2023-08-28T08:36:35.289Z,110.33
2023-08-28T08:37:37.988Z,218.17
2023-08-28T08:38:40.921Z,233.50
2023-08-28T08:39:43.925Z,213.50
2023-08-28T08:40:52.208Z,193.83
2023-08-28T08:41:55.617Z,205.17
2023-08-28T08:42:58.269Z,181.00
2023-08-28T08:44:00.895Z,234.33
2023-08-28T08:45:03.681Z,231.17
2023-08-28T08:46:08.848Z,214.33
2023-08-28T08:47:12.416Z,209.00
2023-08-28T08:48:19.439Z,230.83
2023-08-28T08:49:26.648Z,186.33
2023-08-28T08:50:30.171Z,167.00
2023-08-28T08:51:33.953Z,165.00
2023-08-28T08:52:39.639Z,132.67
2023-08-28T08:53:56.454Z,169.67
2023-08-28T08:55:26.689Z,162.33
2023-08-28T08:56:32.867Z,124.17
2023-08-28T08:57:44.771Z,175.50
2023-08-28T08:58:48.456Z,183.50
2023-08-28T08:59:53.586Z,177.17
2023-08-28T09:00:56.230Z,174.17
2023-08-28T09:02:01.932Z,172.67
2023-08-28T09:03:05.336Z,192.83
2023-08-28T09:04:09.662Z,190.33
2023-08-28T09:05:14.019Z,178.00
2023-08-28T09:06:17.086Z,179.83
2023-08-28T09:07:20.807Z,131.50
2023-08-28T09:08:25.952Z,98.67
2023-08-28T09:09:28.654Z,112.17
2023-08-28T09:10:31.719Z,142.50
2023-08-28T09:11:37.659Z,162.17
2023-08-28T09:12:40.359Z,156.00
2023-08-28T09:13:43.113Z,120.50
2023-08-28T09:14:45.778Z,96.83
2023-08-28T09:15:48.410Z,77.00
2023-08-28T09:16:51.055Z,78.33
2023-08-28T09:17:54.231Z,75.83
2023-08-28T09:18:58.218Z,73.83
2023-08-28T09:20:16.297Z,98.67
2023-08-28T09:21:19.182Z,124.17
2023-08-28T09:22:27.269Z,123.00
2023-08-28T09:23:43.953Z,120.00
2023-08-28T09:24:52.144Z,98.33
2023-08-28T09:25:54.753Z,110.67
2023-08-28T09:26:57.349Z,115.67
2023-08-28T09:28:00.027Z,82.33
2023-08-28T09:29:05.622Z,94.83
2023-08-28T09:30:09.425Z,101.17
2023-08-28T09:31:12.104Z,106.83
2023-08-28T09:32:14.779Z,110.00
2023-08-28T09:33:17.534Z,109.33
2023-08-28T09:34:23.096Z,111.00
2023-08-28T09:35:27.817Z,117.33
2023-08-28T09:36:34.239Z,129.83
2023-08-28T09:37:36.883Z,134.17
2023-08-28T09:38:43.293Z,119.33
2023-08-28T09:39:57.404Z,96.50
2023-08-28T09:41:00.125Z,96.17
2023-08-28T09:42:06.387Z,105.33
2023-08-28T09:43:16.662Z,137.33
2023-08-28T09:44:22.767Z,152.33
2023-08-28T09:45:33.820Z,138.67
2023-08-28T09:46:37.701Z,140.83
2023-08-28T09:47:40.430Z,156.83
2023-08-28T09:48:43.501Z,144.50
2023-08-28T09:49:46.362Z,149.00
2023-08-28T09:50:53.681Z,141.50
2023-08-28T09:51:59.001Z,117.83
2023-08-28T09:53:15.263Z,118.33
2023-08-28T09:54:18.094Z,100.17
2023-08-28T09:55:21.550Z,95.17
2023-08-28T09:56:31.466Z,86.17
2023-08-28T09:57:34.514Z,79.33
2023-08-28T09:58:37.876Z,92.67
2023-08-28T09:59:40.515Z,98.17
2023-08-28T10:00:43.442Z,106.67
2023-08-28T10:01:48.429Z,139.00
2023-08-28T10:02:52.585Z,177.83
2023-08-28T10:03:57.535Z,155.83
2023-08-28T10:05:01.347Z,155.17
2023-08-28T10:06:04.364Z,182.83
2023-08-28T10:07:06.986Z,172.67
2023-08-28T10:08:11.248Z,153.67
2023-08-28T10:09:20.152Z,147.67
2023-08-28T10:10:23.830Z,171.50
2023-08-28T10:11:38.407Z,165.33
2023-08-28T10:12:41.895Z,167.33
2023-08-28T10:13:44.746Z,168.33
2023-08-28T10:14:47.459Z,170.83
2023-08-28T10:16:00.160Z,165.50
2023-08-28T10:17:43.512Z,164.00
2023-08-28T10:20:02.073Z,128.83
2023-08-28T10:21:07.137Z,140.17
2023-08-28T10:22:10.268Z,135.17
2023-08-28T10:23:13.708Z,135.00
2023-08-28T10:24:16.965Z,169.17
2023-08-28T10:25:23.138Z,185.17
2023-08-28T10:26:27.172Z,185.33
2023-08-28T10:27:31.058Z,183.00
2023-08-28T10:28:33.968Z,177.67
2023-08-28T10:29:38.625Z,189.00
2023-08-28T10:30:42.180Z,152.50
2023-08-28T10:31:46.323Z,148.83
2023-08-28T10:32:50.368Z,158.17
2023-08-28T10:33:54.009Z,159.50
2023-08-28T10:34:58.374Z,154.67
2023-08-28T10:36:01.532Z,154.50
2023-08-28T10:37:13.501Z,161.83
2023-08-28T10:38:25.310Z,182.33
2023-08-28T10:39:29.646Z,171.83
2023-08-28T10:40:32.884Z,152.83
2023-08-28T10:41:37.879Z,151.00
2023-08-28T10:42:42.606Z,160.33
2023-08-28T10:43:45.587Z,162.83
2023-08-28T10:44:49.118Z,168.67
2023-08-28T10:45:53.901Z,186.00
2023-08-28T10:46:56.921Z,162.83
2023-08-28T10:47:59.607Z,152.67
2023-08-28T10:49:05.352Z,173.67
2023-08-28T10:50:08.374Z,141.67
2023-08-28T10:51:14.947Z,130.83
2023-08-28T10:52:21.601Z,130.83
2023-08-28T10:53:24.329Z,141.17
2023-08-28T10:54:37.336Z,157.67
2023-08-28T10:55:39.928Z,179.50
2023-08-28T10:56:54.495Z,174.50
2023-08-28T10:58:02.542Z,181.00
2023-08-28T10:59:25.521Z,188.00
2023-08-28T11:00:30.234Z,186.33
2023-08-28T11:01:51.860Z,183.67
2023-08-28T11:03:16.612Z,175.67
2023-08-28T11:04:20.299Z,160.17
2023-08-28T11:05:22.914Z,141.33
2023-08-28T11:06:45.400Z,148.50
2023-08-28T11:07:49.199Z,151.67
2023-08-28T11:08:55.915Z,154.17
2023-08-28T11:10:20.693Z,219.83
2023-08-28T11:11:23.300Z,229.67
2023-08-28T11:12:26.322Z,233.17
2023-08-28T11:13:28.924Z,213.83
2023-08-28T11:14:58.360Z,212.83
2023-08-28T11:16:05.301Z,231.33
2023-08-28T11:17:12.106Z,223.67
2023-08-28T11:18:28.976Z,228.17
2023-08-28T11:19:31.550Z,215.67
2023-08-28T11:20:37.470Z,213.00
2023-08-28T11:21:45.354Z,221.50
2023-08-28T11:22:48.065Z,179.50
2023-08-28T11:23:53.065Z,186.00
2023-08-28T11:24:56.004Z,168.67
2023-08-28T11:26:01.530Z,152.17
2023-08-28T11:27:43.565Z,160.67
2023-08-28T11:28:50.614Z,128.50
2023-08-28T11:29:53.197Z,136.67
2023-08-28T11:31:05.468Z,155.83
2023-08-28T11:32:08.156Z,165.33
2023-08-28T11:33:12.225Z,175.67
2023-08-28T11:34:15.035Z,193.83
2023-08-28T11:35:18.753Z,196.67
2023-08-28T11:36:22.727Z,195.17
2023-08-28T11:37:35.757Z,216.50
2023-08-28T11:38:42.425Z,226.17
2023-08-28T11:39:45.083Z,238.67
2023-08-28T11:40:47.984Z,215.00
2023-08-28T11:41:53.632Z,207.83
2023-08-28T11:43:09.772Z,171.33
2023-08-28T11:44:13.094Z,157.00
2023-08-28T11:45:26.376Z,169.67
2023-08-28T11:46:29.697Z,156.17
2023-08-28T11:47:34.251Z,163.83
2023-08-28T11:48:47.145Z,168.33
2023-08-28T11:49:49.821Z,176.67
2023-08-28T11:51:01.603Z,187.00
2023-08-28T11:52:05.541Z,184.17
2023-08-28T11:53:08.280Z,193.50
2023-08-28T11:54:10.907Z,193.33
2023-08-28T11:55:13.543Z,175.00
2023-08-28T11:56:16.172Z,159.50
2023-08-28T11:57:20.629Z,158.00
2023-08-28T11:58:24.261Z,156.00
2023-08-28T11:59:28.103Z,164.50
2023-08-28T12:00:35.130Z,192.83
2023-08-28T12:01:39.859Z,187.83
2023-08-28T12:02:45.025Z,183.33
2023-08-28T12:03:47.794Z,171.33
2023-08-28T12:04:50.480Z,154.50
2023-08-28T12:06:01.983Z,142.00
2023-08-28T12:07:08.360Z,160.67
2023-08-28T12:08:11.352Z,168.50
2023-08-28T12:09:14.257Z,167.50
2023-08-28T12:10:18.861Z,153.83
2023-08-28T12:11:21.644Z,158.67
2023-08-28T12:12:24.584Z,171.83
2023-08-28T12:13:27.282Z,174.50
2023-08-28T12:14:34.496Z,176.17
2023-08-28T12:15:37.169Z,172.83
2023-08-28T12:16:39.788Z,176.50
2023-08-28T12:17:42.572Z,178.83
2023-08-28T12:18:53.006Z,185.33
2023-08-28T12:19:55.668Z,171.33
2023-08-28T12:21:04.397Z,162.17
2023-08-28T12:22:07.716Z,183.33
2023-08-28T12:23:13.186Z,189.67
2023-08-28T12:24:15.768Z,198.17
2023-08-28T12:25:18.415Z,203.67
2023-08-28T12:26:24.988Z,209.50
2023-08-28T12:27:28.972Z,206.17
2023-08-28T12:28:31.651Z,203.67
2023-08-28T12:29:34.772Z,192.67
2023-08-28T12:30:41.247Z,161.67
2023-08-28T12:31:48.444Z,161.33
2023-08-28T12:32:52.814Z,162.50
2023-08-28T12:33:56.002Z,143.00
2023-08-28T12:35:10.946Z,152.50
2023-08-28T12:36:13.613Z,163.00
2023-08-28T12:37:17.027Z,178.67
2023-08-28T12:38:19.674Z,206.67
2023-08-28T12:39:22.283Z,222.50
2023-08-28T12:40:43.782Z,200.33
2023-08-28T12:41:54.089Z,194.50
2023-08-28T12:43:00.346Z,196.50
2023-08-28T12:44:04.153Z,190.83
2023-08-28T12:45:07.498Z,170.67
2023-08-28T12:46:10.588Z,173.67
2023-08-28T12:47:15.277Z,175.50
2023-08-28T12:48:17.914Z,176.17
2023-08-28T12:49:23.734Z,179.17
2023-08-28T12:50:26.391Z,162.67
2023-08-28T12:51:29.030Z,162.17
2023-08-28T12:52:31.614Z,169.83
2023-08-28T12:53:34.226Z,211.83
2023-08-28T12:54:39.635Z,209.33
2023-08-28T12:55:42.291Z,194.67
2023-08-28T12:56:44.897Z,168.33
2023-08-28T12:57:47.665Z,150.67
2023-08-28T12:58:50.307Z,132.83
2023-08-28T12:59:52.925Z,146.83
2023-08-28T13:00:55.645Z,178.17
2023-08-28T13:01:58.526Z,225.50
2023-08-28T13:03:01.345Z,222.67
2023-08-28T13:04:04.771Z,203.00
2023-08-28T13:05:07.605Z,198.83
2023-08-28T13:06:10.312Z,207.83
2023-08-28T13:07:14.639Z,208.17
2023-08-28T13:08:17.349Z,170.00
2023-08-28T13:09:20.912Z,150.83
2023-08-28T13:10:23.580Z,138.50
2023-08-28T13:11:26.272Z,129.67
2023-08-28T13:12:29.033Z,140.83
2023-08-28T13:13:31.648Z,148.33
2023-08-28T13:14:34.230Z,140.50
2023-08-28T13:15:36.928Z,146.17
2023-08-28T13:16:39.723Z,168.17
2023-08-28T13:17:42.457Z,199.17
2023-08-28T13:18:45.132Z,194.67
2023-08-28T13:19:47.772Z,185.83
2023-08-28T13:20:50.547Z,178.67
2023-08-28T13:21:54.464Z,168.83
2023-08-28T13:22:57.179Z,185.17
2023-08-28T13:24:00.307Z,186.67
2023-08-28T13:25:04.489Z,171.17
2023-08-28T13:26:07.067Z,166.83
2023-08-28T13:27:09.708Z,171.33
2023-08-28T13:28:12.326Z,174.33
2023-08-28T13:29:14.939Z,191.83
2023-08-28T13:30:18.164Z,235.33
2023-08-28T13:31:20.833Z,256.00
2023-08-28T13:32:24.224Z,269.00
2023-08-28T13:33:27.094Z,228.83
2023-08-28T13:34:29.690Z,177.83
2023-08-28T13:35:33.849Z,180.00
2023-08-28T13:36:36.585Z,224.83